Ir al contenido principal

UPS Boeing 747-400, registration N571- Dubai accidente






Actualización 4 de Septiembre



















Primeras imágenes


















REPORTE RADIAL EN INGLES DEL ACCIDENTE



Listen!










Metars:
OMDB 031700Z 22004KT 8000 NSC 35/29 Q1000 NOSIG
OMDB 031600Z 24004KT 8000 NSC 36/27 Q1000 NOSIG
OMDB 031500Z 32006KT 290V030 8000 NSC 35/28 Q0999 NOSIG
OMDB 031400Z 30010KT 8080 NSC 36/26 Q0999 NOSIG
OMDB 031300Z 31011KT 290V350 8000 NSC 37/27 Q0999 NOSIG
OMDB 031200Z 30012KT 8000 NSC 37/27 Q1000 NOSIG

Un UPS Boeing 747-400, el registro N571UP, fue el enfoque de la pista 30L de Dubai, declarada de emergencia y salió de la pista estrellándose en un espacio libre al oeste de Dubai Silicon Oasis y Al-Ain Autopista (E66), a medio camino entre el camino de los emiratos ( E311) y la carretera E611. Tanto la tripulación perecieron en el acciden


DUBAI / / Un United Parcel Services (UPS) avión de carga se estrelló en una zona despoblada cerca del aeropuerto de Dubai a las 20:00, encendiendo en una enorme bola de fuego.

El avión se estrelló en el campamento militar de Nad Al Sheba, cerca de Ciudad Académica y de aldea global, según una fuente militar en el lugar. Los vehículos de emergencia fueron vistos entrando en el campamento.

José Juan, un académico, estaba conduciendo con un amigo por la carretera cuando vio la explosión. "Fue tono negro y vi un resplandor naranja y luego vi la bola de fuego más grande que jamás haya visto", dijo.

"Fue como un edificio de cinco plantas a seis y luego una gran nube de hongo negro."

policía de Dubai confirmó el accidente. Todavía no está confirmado sobre víctimas, pero agencia de noticias estatal WAM dijo que el avión cayó en una zona despoblada.

La empresa de EE.UU. también ha confirmado el accidente en su página web, diciendo que el avión es un modelo 747-400F, con dos tripulantes a bordo, encabezada desde Dubai a Colonia, Alemania. Se estrelló en el despegue, la compañía no ha confirmado ninguna víctima.

"La seguridad es una prioridad clave para UPS", dijo sobre aerolíneas y Gerente de Operaciones Internacionales Lekites Bob. "Este incidente es muy desafortunado y haremos todo lo posible para encontrar la causa.

"Nuestro pensamiento se dirige a los miembros de la tripulación involucrados en el incidente y sus familias".

UPS es la mayor compañía mundial de mensajería y paquetería, de acuerdo con su página web, con sede en Atlanta, con operaciones en más de 200 países.

El simulacro de incendio de emergencia más reciente al aeropuerto internacional de Dubai tuvo lugar hace poco más de dos meses. Internacional de Dubai es usado por 130 aerolíneas y 23 bomberos están especialmente entrenados en servicio en todo momento, además de personal de apoyo.

Este ha sido un mal año para la industria de la aviación con estimaciones aproximadas diciendo que 847 personas han muerto en lo que va del año solo en 35 accidentes en todo el mundo.

COMUNICADO DE UPS



Statement on Aircraft Incident

Atlanta, September 03, 2010

A UPS cargo plane has been involved in an accident in Dubai.

At approximately 12 p.m. EST, UPS Flight 6 from Dubai, UAE, to Cologne, DE, a 747-400 with two crewmembers on board crashed on takeoff. At this time, we have not confirmed any casualties.

"Safety is a key priority for UPS," said Airline & International Operations Manager Bob Lekites. "This incident is very unfortunate and we will do everything we can to find the cause," said Lekites. "Our thoughts go out to the crewmembers involved in the incident and their families."

"We will also release more information as it becomes available, in cooperation with government authorities. We will not speculate about the cause. Until then, we ask for your patience in this difficult time."

A media information hotline has also been established. The hotline number is (502) 329-0110 begin_of_the_skype_highlighting (502) 329-0110 end_of_the_skype_highlighting. A recorded message will provide any updates; the system will also allow reporters to leave messages if they would like a return call. Regular updates will be provided throughout the day.


Fotos: Gulfnews

747-400





Comentarios

Entradas más populares de este blog

EL MODELO DE REASON

CAUSALIDAD DE LOS ACCIDENTES — EL MODELO DE REASON

La aceptación en toda la industria del concepto de accidente de organización fue posible gracias a un sencillo pero gráficamente poderoso modelo elaborado por el Profesor James Reason, que proporcionó un medio para comprender cómo la aviación (o cualquier otro sistema de producción) funciona con éxito o se dirige al fracaso. Con arreglo a este modelo, los accidentes se producen cuando cierto número de factores permiten que ocurran — siendo cada uno de ellos necesario pero en sí no suficiente para quebrar las defensas del sistema. Debido a que los sistemas complejos como la aviación están extremadamente bien defendidos por capas de defensas profundas, las fallas en un punto único rara vez tienen consecuencias en el sistema aeronáutico. Las fallas de equipo o los errores operacionales nunca son la causa del quiebre de las defensas de seguridad operacional, sino más bien los elementos activadores. Los quiebres de…

La incursión en Barcelona - Una aproximación desde la Seguridad Operacional

Incursión en la pista. Todo suceso en un aeródromo que suponga la presencia incorrecta de una aeronave, vehículo o persona en la zona protegida de una superficie designada para el aterrizaje o despegue de una aeronave (DOC 9870 Manual sobre la prevención de incursiones en la pista)

Según los datos publicados en The Aviation Herald la distancia entre el A340 de AR y el B767 de  UTAir era de 1,7 millas. La siguiente imagen muestra la distancia entre ambas. En la calle M cruzando la pista 02, en base a esos datos publicados la situación quedaría así:




Cabe aclarar algo sobre el video que se ha viralizado en las redes. Las distancias no son lo que parece, el zoom y la posición del que filma dan la sensación de cercanía que no es tal. La posición del A340 que se encuentra en primer plano y el avión aproximando en segundo plano, da espectacularidad y parece que están a punto de impactar, en mi opinión, no es así, teniendo en cuenta los datos de Aviation Herald.
Este comentario no le quita gr…

COMPOSICIÓN DE LAS CENIZAS VOLCÁNICAS Y DE LOS GASES ASOCIADOS

Volcanes activos en la zona cordillerana

COMPOSICIÓN DE LAS CENIZAS VOLCÁNICAS Y DE LOS GASES ASOCIADOS

Esencialmente las nubes de cenizas volcánicas están constituidas por partículas finas de roca pulverizada, cuya composición corresponde a la del magma en el interior de los volcanes. Por consiguiente, la composición de las nubes de cenizas volcánicas varía de un volcán a otro. No obstante, en términos generales, están predominantemente constituidas por sílice (> 50%) junto con cantidades más pequeñas de óxidos de aluminio, hierro, calcio y sodio (Tabla 2-1).
El sílice es una forma de silicato vítreo y examinado por exploración microscópica de electrones se parece a cascos de vidrio de bordes agudos.
Los materiales de silicato de vidrio son muy duros. Ordinariamente de una dureza de nivel 5 ó 6 en la escala de Mohs (La escala Mohs recibe su nombre al minerólogo alemán Friedrich Mohs y se basa en una escala de dureza del talco qu…